createdAt,value
2023-04-18T00:00:29.107Z,99132.25
2023-04-18T00:05:33.230Z,99129.28
2023-04-18T00:10:35.959Z,99131.81
2023-04-18T00:15:38.795Z,99123.44
2023-04-18T00:20:42.863Z,99114.75
2023-04-18T00:25:45.614Z,99115.91
2023-04-18T00:30:48.852Z,99114.41
2023-04-18T00:35:53.197Z,99113.47
2023-04-18T00:40:55.952Z,99118.06
2023-04-18T00:46:01.421Z,99114.84
2023-04-18T00:51:06.464Z,99110.78
2023-04-18T00:56:09.511Z,99108.75
2023-04-18T01:01:13.378Z,99108.84
2023-04-18T01:06:17.700Z,99108.50
2023-04-18T01:11:20.584Z,99101.25
2023-04-18T01:16:23.683Z,99093.16
2023-04-18T01:21:31.058Z,99095.88
2023-04-18T01:26:35.076Z,99090.34
2023-04-18T01:31:41.798Z,99086.78
2023-04-18T01:36:44.777Z,99093.16
2023-04-18T01:41:48.978Z,99090.34
2023-04-18T01:46:53.340Z,99084.28
2023-04-18T01:51:56.135Z,99088.31
2023-04-18T01:57:00.362Z,99075.69
2023-04-18T02:02:03.378Z,99075.13
2023-04-18T02:07:06.306Z,99078.84
2023-04-18T02:12:12.502Z,99079.47
2023-04-18T02:17:15.300Z,99074.00
2023-04-18T02:22:18.625Z,99070.91
2023-04-18T02:27:22.974Z,99077.56
2023-04-18T02:32:25.964Z,99073.81
2023-04-18T02:37:28.799Z,99077.13
2023-04-18T02:42:32.874Z,99080.63
2023-04-18T02:47:43.840Z,99075.94
2023-04-18T02:52:56.896Z,99079.38
2023-04-18T02:58:09.139Z,99077.47
2023-04-18T03:03:30.459Z,99073.63
2023-04-18T03:08:44.470Z,99080.47
2023-04-18T03:13:48.799Z,99083.19
2023-04-18T03:18:52.300Z,99080.97
2023-04-18T03:23:57.372Z,99081.44
2023-04-18T03:29:02.904Z,99085.31
2023-04-18T03:34:05.737Z,99086.06
2023-04-18T03:39:09.407Z,99085.41
2023-04-18T03:44:13.961Z,99086.50
2023-04-18T03:49:18.753Z,99080.47
2023-04-18T03:54:21.590Z,99085.94
2023-04-18T03:59:26.847Z,99089.69
2023-04-18T04:04:30.808Z,99085.81
2023-04-18T04:09:35.719Z,99092.50
2023-04-18T04:14:40.147Z,99098.44
2023-04-18T04:19:43.171Z,99103.56
2023-04-18T04:24:51.656Z,99107.84
2023-04-18T04:30:02.537Z,99101.59
2023-04-18T04:35:06.759Z,99104.56
2023-04-18T04:40:10.906Z,99114.88
2023-04-18T04:45:23.273Z,99111.22
2023-04-18T04:50:28.289Z,99111.22
2023-04-18T04:55:31.171Z,99119.81
2023-04-18T05:00:35.854Z,99116.16
2023-04-18T05:05:39.651Z,99115.13
2023-04-18T05:10:43.291Z,99121.38
2023-04-18T05:15:49.507Z,99124.66
2023-04-18T05:20:52.285Z,99125.34
2023-04-18T05:25:56.020Z,99122.28
2023-04-18T05:31:02.924Z,99124.47
2023-04-18T05:36:06.622Z,99131.38
2023-04-18T05:41:09.406Z,99125.16
2023-04-18T05:46:16.818Z,99129.34
2023-04-18T05:51:19.696Z,99134.56
2023-04-18T05:56:22.487Z,99127.72
2023-04-18T06:01:27.792Z,99138.50
2023-04-18T06:06:33.880Z,99145.41
2023-04-18T06:11:36.897Z,99144.28
2023-04-18T06:16:42.800Z,99151.72
2023-04-18T06:21:46.891Z,99151.19
2023-04-18T06:26:50.931Z,99149.81
2023-04-18T06:31:55.955Z,99152.63
2023-04-18T06:36:58.827Z,99153.78
2023-04-18T06:42:02.363Z,99155.53
2023-04-18T06:47:07.701Z,99148.63
2023-04-18T06:52:10.448Z,99154.44
2023-04-18T06:57:15.393Z,99164.25
2023-04-18T07:02:21.124Z,99160.53
2023-04-18T07:07:28.455Z,99166.06
2023-04-18T07:12:36.960Z,99166.19
2023-04-18T07:17:41.914Z,99166.00
2023-04-18T07:22:45.972Z,99176.06
2023-04-18T07:27:48.887Z,99177.78
2023-04-18T07:32:54.023Z,99177.44
2023-04-18T07:37:57.473Z,99179.34
2023-04-18T07:43:01.007Z,99179.41
2023-04-18T07:48:05.765Z,99192.50
2023-04-18T07:53:09.070Z,99186.34
2023-04-18T07:58:14.496Z,99187.94
2023-04-18T08:03:18.729Z,99189.13
2023-04-18T08:08:21.724Z,99202.31
2023-04-18T08:13:25.939Z,99195.41
2023-04-18T08:18:31.893Z,99194.34
2023-04-18T08:23:34.953Z,99195.63
2023-04-18T08:28:38.064Z,99198.53
2023-04-18T08:33:42.417Z,99198.56
2023-04-18T08:38:45.995Z,99189.06
2023-04-18T08:43:49.116Z,99200.81
2023-04-18T08:48:53.639Z,99201.50
2023-04-18T08:53:57.320Z,99204.81
2023-04-18T08:59:00.761Z,99211.47
2023-04-18T09:04:06.413Z,99195.19
2023-04-18T09:09:09.179Z,99205.63
2023-04-18T09:14:25.878Z,99212.31
2023-04-18T09:19:30.610Z,99204.47
2023-04-18T09:24:35.588Z,99200.72
2023-04-18T09:29:47.281Z,99206.84
2023-04-18T09:34:54.328Z,99214.69
2023-04-18T09:39:57.152Z,99213.72
2023-04-18T09:45:05.399Z,99217.13
2023-04-18T09:50:12.271Z,99207.66
2023-04-18T09:55:17.183Z,99213.56
2023-04-18T10:00:25.074Z,99214.78
2023-04-18T10:05:33.676Z,99201.91
2023-04-18T10:10:38.806Z,99201.97
2023-04-18T10:15:44.380Z,99193.28
2023-04-18T10:20:48.630Z,99191.41
2023-04-18T10:25:51.897Z,99195.66
2023-04-18T10:31:04.226Z,99186.94
2023-04-18T10:36:18.641Z,99179.88
2023-04-18T10:41:25.331Z,99188.59
2023-04-18T10:46:32.203Z,99178.59
2023-04-18T10:51:37.767Z,99180.91
2023-04-18T10:56:40.606Z,99178.09
2023-04-18T11:01:50.160Z,99186.50
2023-04-18T11:06:55.956Z,99173.66
2023-04-18T11:12:08.145Z,99169.66
2023-04-18T11:17:19.801Z,99170.28
2023-04-18T11:22:23.998Z,99167.56
2023-04-18T11:27:31.084Z,99163.88
2023-04-18T11:32:35.573Z,99161.78
2023-04-18T11:37:41.965Z,99162.03
2023-04-18T11:42:45.993Z,99165.72
2023-04-18T11:47:49.167Z,99170.69
2023-04-18T11:52:54.912Z,99163.78
2023-04-18T11:57:59.133Z,99163.06
2023-04-18T12:03:04.471Z,99158.03
2023-04-18T12:08:13.854Z,99159.78
2023-04-18T12:13:17.844Z,99159.94
2023-04-18T12:18:21.458Z,99175.78
2023-04-18T12:23:33.935Z,99164.03
2023-04-18T12:28:36.921Z,99154.94
2023-04-18T12:33:42.313Z,99154.03
2023-04-18T12:38:49.215Z,99147.53
2023-04-18T12:43:53.911Z,99151.63
2023-04-18T12:48:57.720Z,99151.00
2023-04-18T12:54:02.184Z,99152.44
2023-04-18T12:59:05.035Z,99145.53
2023-04-18T13:04:12.502Z,99155.03
2023-04-18T13:09:17.547Z,99147.53
2023-04-18T13:14:20.354Z,99153.25
2023-04-18T13:19:24.034Z,99148.81
2023-04-18T13:24:30.407Z,99148.72
2023-04-18T13:29:33.212Z,99147.44
2023-04-18T13:34:45.800Z,99139.78
2023-04-18T13:39:49.952Z,99137.94
2023-04-18T13:44:54.099Z,99135.97
2023-04-18T13:49:58.333Z,99141.59
2023-04-18T13:55:02.896Z,99136.44
2023-04-18T14:00:07.151Z,99143.69
2023-04-18T14:05:17.453Z,99133.56
2023-04-18T14:10:22.291Z,99141.09
2023-04-18T14:15:26.785Z,99144.88
2023-04-18T14:20:34.547Z,99134.13
2023-04-18T14:25:39.725Z,99124.91
2023-04-18T14:30:42.473Z,99134.91
2023-04-18T14:35:46.342Z,99137.25
2023-04-18T14:40:52.126Z,99135.31
2023-04-18T14:45:58.430Z,99126.09
2023-04-18T14:51:03.502Z,99122.31
2023-04-18T14:56:09.468Z,99128.00
2023-04-18T15:01:12.531Z,99124.50
2023-04-18T15:06:15.523Z,99126.66
2023-04-18T15:11:20.329Z,99128.22
2023-04-18T15:16:23.222Z,99130.53
2023-04-18T15:21:27.649Z,99133.00
2023-04-18T15:26:33.214Z,99122.63
2023-04-18T15:31:39.223Z,99124.38
2023-04-18T15:36:42.455Z,99123.50
2023-04-18T15:41:47.341Z,99129.16
2023-04-18T15:46:50.876Z,99118.25
2023-04-18T15:51:54.141Z,99121.47
2023-04-18T15:56:58.572Z,99128.59
2023-04-18T16:02:02.497Z,99130.53
2023-04-18T16:07:06.335Z,99141.59
2023-04-18T16:12:10.527Z,99135.81
2023-04-18T16:17:13.246Z,99114.66
2023-04-18T16:22:16.068Z,99141.53
2023-04-18T16:27:20.445Z,99141.66
2023-04-18T16:32:23.374Z,99157.69
2023-04-18T16:37:26.474Z,99152.91
2023-04-18T16:42:30.631Z,99150.88
2023-04-18T16:47:33.451Z,99144.97
2023-04-18T16:52:36.200Z,99140.16
2023-04-18T16:57:41.435Z,99147.28
2023-04-18T17:02:45.405Z,99162.69
2023-04-18T17:07:49.802Z,99148.41
2023-04-18T17:12:54.498Z,99164.34
2023-04-18T17:18:00.638Z,99171.09
2023-04-18T17:23:04.902Z,99162.94
2023-04-18T17:28:09.481Z,99167.41
2023-04-18T17:33:13.336Z,99174.69
2023-04-18T17:38:16.092Z,99168.72
2023-04-18T17:43:21.481Z,99179.28
2023-04-18T17:48:25.986Z,99174.81
2023-04-18T17:53:30.221Z,99178.66
2023-04-18T17:58:36.661Z,99181.69
2023-04-18T18:03:39.904Z,99177.94
2023-04-18T18:08:44.258Z,99186.53
2023-04-18T18:13:51.575Z,99184.13
2023-04-18T18:18:54.297Z,99188.28
2023-04-18T18:23:57.173Z,99191.94
2023-04-18T18:29:02.161Z,99197.03
2023-04-18T18:34:05.807Z,99200.44
2023-04-18T18:39:09.593Z,99213.38
2023-04-18T18:44:14.600Z,99213.00
2023-04-18T18:49:17.522Z,99215.81
2023-04-18T18:54:21.164Z,99220.75
2023-04-18T18:59:25.497Z,99223.69
2023-04-18T19:04:29.242Z,99231.06
2023-04-18T19:09:32.241Z,99233.97
2023-04-18T19:14:36.360Z,99234.44
2023-04-18T19:19:39.844Z,99243.28
2023-04-18T19:24:43.421Z,99241.81
2023-04-18T19:29:47.661Z,99238.31
2023-04-18T19:34:51.069Z,99239.16
2023-04-18T19:39:53.829Z,99244.38
2023-04-18T19:44:59.498Z,99258.44
2023-04-18T19:50:02.418Z,99253.22
2023-04-18T19:55:05.818Z,99256.59
2023-04-18T20:00:14.111Z,99252.31
2023-04-18T20:05:19.075Z,99262.16
2023-04-18T20:10:22.723Z,99261.19
2023-04-18T20:15:30.303Z,99266.25
2023-04-18T20:20:33.378Z,99267.41
2023-04-18T20:25:36.288Z,99258.69
2023-04-18T20:30:41.013Z,99262.22
2023-04-18T20:35:44.458Z,99269.59
2023-04-18T20:40:47.342Z,99262.44
2023-04-18T20:45:51.887Z,99274.19
2023-04-18T20:50:55.358Z,99275.16
2023-04-18T20:55:58.645Z,99270.03
2023-04-18T21:01:03.334Z,99274.41
2023-04-18T21:06:06.624Z,99273.16
2023-04-18T21:11:09.523Z,99279.97
2023-04-18T21:16:13.672Z,99273.41
2023-04-18T21:21:16.389Z,99276.81
2023-04-18T21:26:19.150Z,99276.81
2023-04-18T21:31:23.351Z,99282.16
2023-04-18T21:36:27.919Z,99293.25
2023-04-18T21:41:30.707Z,99282.47
2023-04-18T21:46:34.788Z,99286.09
2023-04-18T21:51:37.620Z,99280.53
2023-04-18T21:56:40.404Z,99277.38
2023-04-18T22:01:44.796Z,99276.03
2023-04-18T22:06:47.629Z,99277.19
2023-04-18T22:11:51.598Z,99266.63
2023-04-18T22:16:55.837Z,99266.00
2023-04-18T22:21:58.908Z,99270.38
2023-04-18T22:27:02.778Z,99269.97
2023-04-18T22:32:07.724Z,99272.88
2023-04-18T22:37:10.515Z,99273.50
2023-04-18T22:42:13.261Z,99275.72
2023-04-18T22:47:17.427Z,99276.59
2023-04-18T22:52:23.748Z,99283.84
2023-04-18T22:57:26.612Z,99287.50
2023-04-18T23:02:30.873Z,99277.78
2023-04-18T23:07:34.001Z,99283.56
2023-04-18T23:12:36.779Z,99279.06
2023-04-18T23:17:40.919Z,99277.72
2023-04-18T23:22:43.704Z,99282.50
2023-04-18T23:27:46.850Z,99277.41
2023-04-18T23:32:51.014Z,99274.63
2023-04-18T23:37:53.739Z,99270.59
2023-04-18T23:42:57.107Z,99271.31
2023-04-18T23:48:01.299Z,99269.09
2023-04-18T23:53:04.206Z,99278.06
2023-04-18T23:58:06.915Z,99273.59
